KBWD/BWD METAR and TAF weather

Enter ICAO airport designator
Station Type Date Time Source
KBWD METAR 2020/09/22 01:55 UTC NOAA

KBWD 220155Z AUTO 06007KT 10SM OVC023 22/19 A3008 RMK AO1


Station Type Date Time Source
KBWD Decoded METAR 2020/09/22 01:55 UTC NOAA

Brownwood, Brownwood Regional Airport, TX, United States (KBWD) 31-48N 098-57W
Sep 21, 2020 - 09:55 PM EDT / 2020.09.22 0155 UTC
Wind: from the ENE (060 degrees) at 8 MPH (7 KT):0
Visibility: 10 mile(s):0
Sky conditions: overcast
Temperature: 71 F (22 C)
Dew Point: 66 F (19 C)
Relative Humidity: 83%
Pressure (altimeter): 30.08 in. Hg (1018 hPa)
ob: KBWD 220155Z AUTO 06007KT 10SM OVC023 22/19 A3008 RMK AO1
cycle: 2

Station Type Date Time Source
KBWD TAF UTC NOAA

Error!

Example: see airport list